createdAt,value
2018-08-10T00:00:55.941Z,87.90
2018-08-10T00:03:25.441Z,88.20
2018-08-10T00:05:54.679Z,88.10
2018-08-10T00:08:25.211Z,87.70
2018-08-10T00:10:54.072Z,86.70
2018-08-10T00:13:24.435Z,86.80
2018-08-10T00:15:55.168Z,87.00
2018-08-10T00:18:25.400Z,86.80
2018-08-10T00:21:00.387Z,87.50
2018-08-10T00:23:29.666Z,87.40
2018-08-10T00:26:00.490Z,87.50
2018-08-10T00:28:35.201Z,87.20
2018-08-10T00:31:07.783Z,87.70
2018-08-10T00:33:36.452Z,88.10
2018-08-10T00:36:05.372Z,87.40
2018-08-10T00:39:11.547Z,87.70
2018-08-10T00:41:40.005Z,87.90
2018-08-10T00:44:09.028Z,89.20
2018-08-10T00:46:41.244Z,88.70
2018-08-10T01:03:09.149Z,88.90
2018-08-10T01:11:43.871Z,86.90
2018-08-10T01:14:12.962Z,86.50
2018-08-10T01:16:41.568Z,86.50
2018-08-10T01:25:40.365Z,85.90
2018-08-10T01:41:51.075Z,85.70
2018-08-10T01:44:19.799Z,82.80
2018-08-10T01:46:48.112Z,84.10
2018-08-10T01:58:38.212Z,86.10
2018-08-10T02:01:08.172Z,86.80
2018-08-10T02:03:37.880Z,86.80
2018-08-10T02:06:06.536Z,86.90
2018-08-10T02:08:34.860Z,87.20
2018-08-10T02:11:03.236Z,87.30
2018-08-10T02:13:31.527Z,87.60
2018-08-10T02:15:59.826Z,87.70
2018-08-10T02:18:28.187Z,87.70
2018-08-10T02:20:56.559Z,88.00
2018-08-10T02:23:24.901Z,88.00
2018-08-10T02:25:53.230Z,88.40
2018-08-10T02:28:21.524Z,88.70
2018-08-10T02:30:49.962Z,88.90
2018-08-10T02:33:18.468Z,89.70
2018-08-10T02:35:46.926Z,89.00
2018-08-10T02:38:15.317Z,89.00
2018-08-10T02:40:43.589Z,89.00
2018-08-10T02:43:11.937Z,89.40
2018-08-10T02:45:40.220Z,89.60
2018-08-10T02:48:08.622Z,89.10
2018-08-10T02:50:36.969Z,89.00
2018-08-10T02:53:05.423Z,89.30
2018-08-10T02:55:33.869Z,89.30
2018-08-10T02:58:02.249Z,89.70
2018-08-10T03:00:30.564Z,89.00
2018-08-10T03:02:58.894Z,89.00
2018-08-10T03:05:27.375Z,89.20
2018-08-10T03:07:55.740Z,89.20
2018-08-10T03:10:24.552Z,89.00
2018-08-10T03:12:53.323Z,89.70
2018-08-10T03:15:22.569Z,90.00
2018-08-10T03:17:52.070Z,89.80
2018-08-10T03:20:20.601Z,89.60
2018-08-10T03:22:49.105Z,89.50
2018-08-10T03:25:17.620Z,90.00
2018-08-10T03:27:46.746Z,90.10
2018-08-10T03:30:15.082Z,90.40
2018-08-10T03:32:43.496Z,90.50
2018-08-10T03:35:11.859Z,90.70
2018-08-10T03:37:40.216Z,90.70
2018-08-10T03:40:10.795Z,90.90
2018-08-10T03:42:40.021Z,91.10
2018-08-10T03:45:09.299Z,91.40
2018-08-10T03:47:40.053Z,91.10
2018-08-10T03:50:13.468Z,91.20
2018-08-10T03:52:43.287Z,91.00
2018-08-10T03:55:12.434Z,91.20
2018-08-10T03:57:41.103Z,91.10
2018-08-10T04:00:17.002Z,91.10
2018-08-10T04:02:45.388Z,91.40
2018-08-10T04:05:14.412Z,91.10
2018-08-10T04:07:42.834Z,90.90
2018-08-10T04:10:11.642Z,90.90
2018-08-10T04:12:40.196Z,91.00
2018-08-10T04:15:12.016Z,90.90
2018-08-10T04:17:40.404Z,91.10
2018-08-10T04:20:08.948Z,91.10
2018-08-10T04:22:37.293Z,91.40
2018-08-10T04:25:06.479Z,91.60
2018-08-10T04:27:34.821Z,91.90
2018-08-10T04:30:03.238Z,91.90
2018-08-10T04:32:32.040Z,92.20
2018-08-10T04:35:00.501Z,92.10
2018-08-10T04:37:29.308Z,92.50
2018-08-10T04:39:58.049Z,92.40
2018-08-10T04:42:26.921Z,91.90
2018-08-10T04:44:56.014Z,92.00
2018-08-10T04:47:24.634Z,92.20
2018-08-10T04:49:53.486Z,92.00
2018-08-10T04:52:22.581Z,92.00
2018-08-10T04:54:50.949Z,92.20
2018-08-10T04:57:19.269Z,92.10
2018-08-10T04:59:47.844Z,92.10
2018-08-10T05:02:16.547Z,92.40
2018-08-10T05:04:45.118Z,92.30
2018-08-10T05:07:13.456Z,92.20
2018-08-10T05:09:41.802Z,92.40
2018-08-10T05:12:10.104Z,92.20
2018-08-10T05:14:38.438Z,92.30
2018-08-10T05:17:06.798Z,92.20
2018-08-10T05:19:36.732Z,92.20
2018-08-10T05:22:40.145Z,92.40
2018-08-10T05:25:09.428Z,92.20
2018-08-10T05:30:46.033Z,92.30
2018-08-10T05:33:14.436Z,92.20
2018-08-10T05:36:08.959Z,92.30
2018-08-10T05:38:39.056Z,92.30
2018-08-10T05:44:32.375Z,92.50
2018-08-10T05:47:03.148Z,92.40
2018-08-10T05:49:31.537Z,92.50
2018-08-10T05:51:59.908Z,92.40
2018-08-10T05:54:28.360Z,92.50
2018-08-10T05:56:56.768Z,92.50
2018-08-10T05:59:25.084Z,92.10
2018-08-10T06:01:53.492Z,92.30
2018-08-10T06:04:23.011Z,92.30
2018-08-10T06:06:51.427Z,92.10
2018-08-10T06:09:19.822Z,92.00
2018-08-10T06:11:48.656Z,91.80
2018-08-10T06:14:17.028Z,91.60
2018-08-10T06:16:45.457Z,91.30
2018-08-10T06:19:13.880Z,90.70
2018-08-10T06:21:42.279Z,90.10
2018-08-10T06:24:10.718Z,88.20
2018-08-10T06:26:39.060Z,88.90
2018-08-10T06:29:07.399Z,89.50
2018-08-10T06:31:35.754Z,88.90
2018-08-10T06:34:04.217Z,88.40
2018-08-10T06:36:32.576Z,89.00
2018-08-10T06:39:00.914Z,88.90
2018-08-10T06:41:29.229Z,89.30
2018-08-10T06:43:57.622Z,89.30
2018-08-10T06:46:25.969Z,90.10
2018-08-10T06:48:54.322Z,90.60
2018-08-10T06:51:22.692Z,90.60
2018-08-10T06:53:51.017Z,90.80
2018-08-10T06:56:19.384Z,91.20
2018-08-10T06:58:47.686Z,91.10
2018-08-10T07:01:16.036Z,91.20
2018-08-10T07:03:44.376Z,91.30
2018-08-10T07:06:12.762Z,91.10
2018-08-10T07:08:41.018Z,91.20
2018-08-10T07:11:11.078Z,90.70
2018-08-10T07:13:39.531Z,91.00
2018-08-10T07:16:07.918Z,90.80
2018-08-10T07:18:36.267Z,90.40
2018-08-10T07:21:04.648Z,90.40
2018-08-10T07:23:32.930Z,90.20
2018-08-10T07:26:01.288Z,89.70
2018-08-10T07:28:29.859Z,88.60
2018-08-10T07:30:58.189Z,88.80
2018-08-10T07:33:26.605Z,88.60
2018-08-10T07:35:55.379Z,86.60
2018-08-10T07:38:23.751Z,87.70
2018-08-10T07:40:53.310Z,88.30
2018-08-10T07:43:26.076Z,87.30
2018-08-10T07:45:55.252Z,88.10
2018-08-10T07:49:14.171Z,88.10
2018-08-10T07:51:44.884Z,87.50
2018-08-10T07:54:13.445Z,87.60
2018-08-10T07:56:58.227Z,88.90
2018-08-10T07:59:29.796Z,88.90
2018-08-10T08:01:58.229Z,90.10
2018-08-10T08:04:27.629Z,88.40
2018-08-10T08:06:56.071Z,86.30
2018-08-10T08:09:24.429Z,86.20
2018-08-10T08:11:52.956Z,85.20
2018-08-10T08:14:21.489Z,86.80
2018-08-10T08:16:49.992Z,85.80
2018-08-10T08:19:18.435Z,87.00
2018-08-10T08:22:06.359Z,85.60
2018-08-10T08:24:34.933Z,85.30
2018-08-10T08:27:03.399Z,86.80
2018-08-10T08:29:31.872Z,86.90
2018-08-10T08:32:00.662Z,88.60
2018-08-10T08:34:35.425Z,89.00
2018-08-10T08:37:04.740Z,89.20
2018-08-10T08:40:36.040Z,87.80
2018-08-10T08:43:04.563Z,87.10
2018-08-10T08:46:01.325Z,86.40
2018-08-10T08:48:31.013Z,84.70
2018-08-10T08:51:00.936Z,79.80
2018-08-10T08:53:29.999Z,83.20
2018-08-10T08:56:16.991Z,83.60
2018-08-10T08:58:46.854Z,81.30
2018-08-10T09:01:16.525Z,82.20
2018-08-10T09:05:00.700Z,81.00
2018-08-10T09:07:29.825Z,79.70
2018-08-10T09:09:59.033Z,80.20
2018-08-10T09:12:27.520Z,78.10
2018-08-10T09:15:02.172Z,78.80
2018-08-10T09:17:30.818Z,77.50
2018-08-10T09:19:59.453Z,79.30
2018-08-10T09:22:28.316Z,76.60
2018-08-10T09:24:57.127Z,77.50
2018-08-10T09:27:25.685Z,77.50
2018-08-10T09:29:54.216Z,78.70
2018-08-10T09:32:23.153Z,78.20
2018-08-10T09:34:52.019Z,77.90
2018-08-10T09:37:20.924Z,77.30
2018-08-10T09:39:49.523Z,76.30
2018-08-10T09:42:18.407Z,77.40
2018-08-10T09:44:47.059Z,76.40
2018-08-10T09:47:15.496Z,76.50
2018-08-10T09:49:45.600Z,76.30
2018-08-10T09:52:14.256Z,76.60
2018-08-10T09:55:26.496Z,76.30
2018-08-10T09:58:00.695Z,77.10
2018-08-10T10:00:34.683Z,77.70
2018-08-10T10:03:08.720Z,76.10
2018-08-10T10:05:37.467Z,76.60
2018-08-10T10:08:06.049Z,76.40
2018-08-10T10:10:34.431Z,73.60
2018-08-10T10:13:02.885Z,74.30
2018-08-10T10:15:32.830Z,75.60
2018-08-10T10:18:01.461Z,75.60
2018-08-10T10:20:30.045Z,74.30
2018-08-10T10:22:58.548Z,74.10
2018-08-10T10:25:27.117Z,73.50
2018-08-10T10:27:55.701Z,73.00
2018-08-10T10:30:24.492Z,73.90
2018-08-10T10:32:53.013Z,72.70
2018-08-10T10:35:21.958Z,72.70
2018-08-10T10:37:50.715Z,72.20
2018-08-10T10:40:19.127Z,73.80
2018-08-10T10:42:47.577Z,72.30
2018-08-10T10:45:16.491Z,73.10
2018-08-10T10:47:46.075Z,73.80
2018-08-10T10:50:14.924Z,72.00
2018-08-10T10:52:43.411Z,71.00
2018-08-10T10:55:12.017Z,69.10
2018-08-10T10:57:41.392Z,70.00
2018-08-10T11:00:12.803Z,68.40
2018-08-10T11:02:41.087Z,68.60
2018-08-10T11:05:09.566Z,67.30
2018-08-10T11:07:38.072Z,68.30
2018-08-10T11:10:08.296Z,65.50
2018-08-10T11:12:36.901Z,66.90
2018-08-10T11:15:05.745Z,65.10
2018-08-10T11:17:34.218Z,62.90
2018-08-10T11:20:02.504Z,65.40
2018-08-10T11:22:30.854Z,64.30
2018-08-10T11:24:59.211Z,64.50
2018-08-10T11:27:27.629Z,64.70
2018-08-10T11:29:55.893Z,63.30
2018-08-10T11:32:24.332Z,65.10
2018-08-10T11:34:52.665Z,66.50
2018-08-10T11:37:21.352Z,65.30
2018-08-10T11:39:50.092Z,66.00
2018-08-10T11:42:18.341Z,63.30
2018-08-10T11:44:46.655Z,62.90
2018-08-10T11:47:14.976Z,61.20
2018-08-10T11:49:43.617Z,61.70
2018-08-10T11:52:11.941Z,60.20
2018-08-10T11:54:40.359Z,64.00
2018-08-10T11:57:15.758Z,62.40
2018-08-10T11:59:44.048Z,61.20
2018-08-10T12:02:13.163Z,60.90
2018-08-10T12:04:41.479Z,60.70
2018-08-10T12:07:09.751Z,61.00
2018-08-10T12:09:38.093Z,60.60
2018-08-10T12:12:06.510Z,60.10
2018-08-10T12:14:34.932Z,59.60
2018-08-10T12:19:38.900Z,58.40
2018-08-10T12:22:07.608Z,58.00
2018-08-10T12:24:36.337Z,58.10
2018-08-10T12:27:04.726Z,57.90
2018-08-10T12:29:33.008Z,58.70
2018-08-10T12:32:01.276Z,58.90
2018-08-10T12:34:29.563Z,57.50
2018-08-10T12:36:57.830Z,56.60
2018-08-10T12:39:26.114Z,61.30
2018-08-10T12:41:54.385Z,61.50
2018-08-10T12:44:23.547Z,60.90
2018-08-10T12:46:52.016Z,61.70
2018-08-10T12:49:20.353Z,59.70
2018-08-10T12:51:48.715Z,59.80
2018-08-10T12:54:17.177Z,61.50
2018-08-10T12:56:45.443Z,59.60
2018-08-10T12:59:13.733Z,59.80
2018-08-10T13:01:42.016Z,60.70
2018-08-10T13:04:10.301Z,59.80
2018-08-10T13:06:38.606Z,58.00
2018-08-10T13:09:09.688Z,57.50
2018-08-10T13:11:38.053Z,55.60
2018-08-10T13:14:06.380Z,53.80
2018-08-10T13:16:34.664Z,55.50
2018-08-10T13:19:03.101Z,54.00
2018-08-10T13:21:31.609Z,53.80
2018-08-10T13:24:00.055Z,54.10
2018-08-10T13:26:28.272Z,55.00
2018-08-10T13:28:56.602Z,56.40
2018-08-10T13:31:24.893Z,55.80
2018-08-10T13:33:53.357Z,54.30
2018-08-10T13:36:21.727Z,56.30
2018-08-10T13:38:50.036Z,56.10
2018-08-10T13:41:18.422Z,55.20
2018-08-10T13:43:46.860Z,56.00
2018-08-10T13:46:15.112Z,57.20
2018-08-10T13:48:43.411Z,57.10
2018-08-10T13:51:11.707Z,57.30
2018-08-10T13:53:40.763Z,57.50
2018-08-10T13:56:09.043Z,57.20
2018-08-10T13:58:37.348Z,56.50
2018-08-10T14:01:05.712Z,57.20
2018-08-10T14:03:34.016Z,56.70
2018-08-10T14:06:02.384Z,56.60
2018-08-10T14:08:30.696Z,52.30
2018-08-10T14:10:58.976Z,51.80
2018-08-10T14:13:27.722Z,50.80
2018-08-10T14:15:56.103Z,50.70
2018-08-10T14:18:24.332Z,50.90
2018-08-10T14:20:52.621Z,50.90
2018-08-10T14:23:20.897Z,52.10
2018-08-10T14:25:49.172Z,50.70
2018-08-10T14:28:17.505Z,50.90
2018-08-10T14:30:45.814Z,50.80
2018-08-10T14:33:14.086Z,52.30
2018-08-10T14:35:42.426Z,53.10
2018-08-10T14:38:10.716Z,54.00
2018-08-10T14:40:39.017Z,54.30
2018-08-10T14:43:07.347Z,55.20
2018-08-10T14:45:35.615Z,55.40
2018-08-10T14:48:03.907Z,55.30
2018-08-10T14:50:32.226Z,55.80
2018-08-10T14:53:00.545Z,56.20
2018-08-10T14:55:28.840Z,56.60
2018-08-10T14:57:57.131Z,56.60
2018-08-10T15:00:25.413Z,57.10
2018-08-10T15:02:53.786Z,56.70
2018-08-10T15:05:22.049Z,56.50
2018-08-10T15:07:50.344Z,58.00
2018-08-10T15:10:18.650Z,59.70
2018-08-10T15:12:47.552Z,64.50
2018-08-10T15:15:18.277Z,66.80
2018-08-10T15:17:47.263Z,68.70
2018-08-10T15:20:23.272Z,67.20
2018-08-10T15:22:51.528Z,66.40
2018-08-10T15:25:21.433Z,66.50
2018-08-10T15:27:50.720Z,65.80
2018-08-10T15:30:19.554Z,67.00
2018-08-10T15:32:47.910Z,67.10
2018-08-10T15:35:17.084Z,66.70
2018-08-10T15:37:45.863Z,66.10
2018-08-10T15:40:16.301Z,64.30
2018-08-10T15:42:44.869Z,65.50
2018-08-10T15:45:15.290Z,64.50
2018-08-10T15:47:44.148Z,63.10
2018-08-10T15:50:12.719Z,63.60
2018-08-10T15:52:43.199Z,63.30
2018-08-10T15:55:11.780Z,62.40
2018-08-10T15:57:40.751Z,62.60
2018-08-10T16:00:12.461Z,62.40
2018-08-10T16:02:40.853Z,60.30
2018-08-10T16:05:10.125Z,60.90
2018-08-10T16:07:38.625Z,61.80
2018-08-10T16:10:07.780Z,61.50
2018-08-10T16:12:36.627Z,61.70
2018-08-10T16:15:06.659Z,60.80
2018-08-10T16:17:35.189Z,58.80
2018-08-10T16:20:03.501Z,59.60
2018-08-10T16:22:31.791Z,58.50
2018-08-10T16:25:00.162Z,59.30
2018-08-10T16:27:28.888Z,59.60
2018-08-10T16:29:57.221Z,60.20
2018-08-10T16:32:25.451Z,60.30
2018-08-10T16:34:53.717Z,60.90
2018-08-10T16:37:22.010Z,60.70
2018-08-10T16:39:50.311Z,60.10
2018-08-10T16:42:18.580Z,63.60
2018-08-10T16:44:46.924Z,66.80
2018-08-10T16:47:15.206Z,65.60
2018-08-10T16:49:43.499Z,66.50
2018-08-10T16:52:11.866Z,66.80
2018-08-10T16:54:40.158Z,65.60
2018-08-10T16:57:08.433Z,66.60
2018-08-10T16:59:36.791Z,66.00
2018-08-10T17:02:05.088Z,66.30
2018-08-10T17:04:33.704Z,65.90
2018-08-10T17:07:01.978Z,65.10
2018-08-10T17:09:30.410Z,65.80
2018-08-10T17:11:58.732Z,66.50
2018-08-10T17:14:27.548Z,68.40
2018-08-10T17:16:55.942Z,70.50
2018-08-10T17:19:24.353Z,72.60
2018-08-10T17:21:52.779Z,73.60
2018-08-10T17:24:21.939Z,74.40
2018-08-10T17:26:50.655Z,76.30
2018-08-10T17:29:19.186Z,75.40
2018-08-10T17:31:47.799Z,74.10
2018-08-10T17:34:17.463Z,74.80
2018-08-10T17:36:45.963Z,75.90
2018-08-10T17:39:15.431Z,76.60
2018-08-10T17:41:45.229Z,77.40
2018-08-10T17:44:14.219Z,77.00
2018-08-10T17:46:42.954Z,77.90
2018-08-10T17:49:11.416Z,78.30
2018-08-10T17:51:40.145Z,79.60
2018-08-10T17:54:08.746Z,79.50
2018-08-10T17:56:37.299Z,80.30
2018-08-10T17:59:06.032Z,82.10
2018-08-10T18:01:35.805Z,81.40
2018-08-10T18:04:04.301Z,81.70
2018-08-10T18:06:33.206Z,80.60
2018-08-10T18:09:01.693Z,81.30
2018-08-10T18:11:30.337Z,80.30
2018-08-10T18:13:58.837Z,79.60
2018-08-10T18:16:27.252Z,78.10
2018-08-10T18:18:55.749Z,78.10
2018-08-10T18:21:24.357Z,77.40
2018-08-10T18:23:52.817Z,78.20
2018-08-10T18:26:21.465Z,78.90
2018-08-10T18:28:49.939Z,80.30
2018-08-10T18:31:18.387Z,81.00
2018-08-10T18:33:46.907Z,82.20
2018-08-10T18:36:15.304Z,83.30
2018-08-10T18:38:43.751Z,84.00
2018-08-10T18:41:12.245Z,85.00
2018-08-10T18:43:41.190Z,88.00
2018-08-10T18:46:09.643Z,86.30
2018-08-10T18:48:39.173Z,87.10
2018-08-10T18:51:07.479Z,87.10
2018-08-10T18:53:36.329Z,87.70
2018-08-10T18:56:06.033Z,87.80
2018-08-10T18:58:34.382Z,87.60
2018-08-10T19:01:03.001Z,88.90
2018-08-10T19:03:31.577Z,88.60
2018-08-10T19:08:39.393Z,90.00
2018-08-10T19:11:07.929Z,90.20
2018-08-10T19:13:36.792Z,90.80
2018-08-10T19:16:05.488Z,90.70
2018-08-10T19:18:33.861Z,90.50
2018-08-10T19:21:02.368Z,90.40
2018-08-10T19:23:30.863Z,90.40
2018-08-10T19:25:59.361Z,91.30
2018-08-10T19:28:27.907Z,90.80
2018-08-10T19:30:56.650Z,91.00
2018-08-10T19:33:25.173Z,91.20
2018-08-10T19:35:53.725Z,90.90
2018-08-10T19:38:22.200Z,90.60
2018-08-10T19:40:50.752Z,90.80
2018-08-10T19:43:19.392Z,90.80
2018-08-10T19:45:49.461Z,91.40
2018-08-10T19:48:18.193Z,91.70
2018-08-10T19:50:46.612Z,92.30
2018-08-10T19:53:15.315Z,92.50
2018-08-10T19:55:43.811Z,92.20
2018-08-10T19:58:12.257Z,92.00
2018-08-10T20:00:41.007Z,92.30
2018-08-10T20:03:09.577Z,92.70
2018-08-10T20:05:38.117Z,92.80
2018-08-10T20:08:06.781Z,92.80
2018-08-10T20:10:35.215Z,92.70
2018-08-10T20:13:03.735Z,92.80
2018-08-10T20:15:32.293Z,93.20
2018-08-10T20:18:00.759Z,93.00
2018-08-10T20:20:29.385Z,93.40
2018-08-10T20:22:58.023Z,93.50
2018-08-10T20:25:26.488Z,93.60
2018-08-10T20:27:55.245Z,93.30
2018-08-10T20:30:23.842Z,93.20
2018-08-10T20:32:52.498Z,93.10
2018-08-10T20:35:21.169Z,92.80
2018-08-10T20:37:49.665Z,92.70
2018-08-10T20:40:20.023Z,92.30
2018-08-10T20:42:49.191Z,93.80
2018-08-10T20:45:18.594Z,94.10
2018-08-10T20:47:47.238Z,93.80
2018-08-10T20:50:20.044Z,93.30
2018-08-10T20:52:48.589Z,92.90
2018-08-10T20:55:17.019Z,94.20
2018-08-10T20:57:45.735Z,93.70
2018-08-10T21:00:14.076Z,94.40
2018-08-10T21:02:44.568Z,94.60
2018-08-10T21:05:13.620Z,94.70
2018-08-10T21:07:42.030Z,94.90
2018-08-10T21:10:14.726Z,95.10
2018-08-10T21:12:43.806Z,94.40
2018-08-10T21:15:13.468Z,94.20
2018-08-10T21:17:42.785Z,94.70
2018-08-10T21:20:12.869Z,94.70
2018-08-10T21:22:41.242Z,94.90
2018-08-10T21:25:10.377Z,95.00
2018-08-10T21:27:39.294Z,95.00
2018-08-10T21:30:09.746Z,94.90
2018-08-10T21:32:38.225Z,94.20
2018-08-10T21:35:06.706Z,94.60
2018-08-10T21:37:35.237Z,94.40
2018-08-10T21:40:03.580Z,95.00
2018-08-10T21:42:32.014Z,95.10
2018-08-10T21:45:00.342Z,95.10
2018-08-10T21:47:28.725Z,95.00
2018-08-10T21:49:57.296Z,95.00
2018-08-10T21:52:25.668Z,94.60
2018-08-10T21:54:53.976Z,94.90
2018-08-10T21:57:22.301Z,94.90
2018-08-10T21:59:50.773Z,95.00
2018-08-10T22:02:20.202Z,95.10
2018-08-10T22:04:48.534Z,95.00
2018-08-10T22:07:16.898Z,94.80
2018-08-10T22:09:45.306Z,95.10
2018-08-10T22:12:17.881Z,95.40
2018-08-10T22:14:52.346Z,95.20
2018-08-10T22:17:26.184Z,95.50
2018-08-10T22:19:58.825Z,95.70
2018-08-10T22:22:27.819Z,95.70
2018-08-10T22:24:56.111Z,96.10
2018-08-10T22:27:24.401Z,96.20
2018-08-10T22:29:52.769Z,96.50
2018-08-10T22:32:21.048Z,97.10
2018-08-10T22:34:49.737Z,97.50
2018-08-10T22:37:18.028Z,97.60
2018-08-10T22:39:48.837Z,97.50
2018-08-10T22:42:17.260Z,97.70
2018-08-10T22:44:45.540Z,97.70
2018-08-10T22:47:13.901Z,98.50
2018-08-10T22:49:42.249Z,98.40
2018-08-10T22:52:10.554Z,98.60
2018-08-10T22:54:38.896Z,98.10
2018-08-10T22:57:07.214Z,98.00
2018-08-10T22:59:35.510Z,99.30
2018-08-10T23:02:03.840Z,99.60
2018-08-10T23:04:32.202Z,99.10
2018-08-10T23:07:00.512Z,99.60
2018-08-10T23:09:28.843Z,99.40
2018-08-10T23:11:57.575Z,99.70
2018-08-10T23:14:25.876Z,99.90
2018-08-10T23:16:54.144Z,99.90
2018-08-10T23:19:22.488Z,99.80
2018-08-10T23:21:50.789Z,99.90
2018-08-10T23:24:19.104Z,99.90
2018-08-10T23:26:47.413Z,99.90
2018-08-10T23:29:15.751Z,99.90
2018-08-10T23:31:44.051Z,99.60
2018-08-10T23:34:12.352Z,99.90
2018-08-10T23:36:40.924Z,99.40
2018-08-10T23:39:10.393Z,99.50
2018-08-10T23:41:38.771Z,99.90
2018-08-10T23:44:07.100Z,99.90
2018-08-10T23:46:35.445Z,99.90
2018-08-10T23:49:03.738Z,99.90
2018-08-10T23:51:33.297Z,99.90
2018-08-10T23:54:01.662Z,99.90
2018-08-10T23:56:29.967Z,99.90
2018-08-10T23:58:58.426Z,99.90
